INFORMACIÓN METAR y TAF
METAR FOR DTTJ
ADDS - METARS form results

(0308 UTC 16 December 2019)
Data provider http://aviationweather.gov/metar/data/
 
METAR text: DTTJ 160300Z 15004KT 8000 NSC 11/08 Q1021
Conditions at: DTTJ (DJERBA MELLITA , TN) observed 0300 UTC 16 December 2019
Temperature: 11.0°C (52°F)
Dewpoint: 8.0°C (46°F) [RH = 82%]
Pressure (altimeter): 30.15 inches Hg (1021.0 mb)
Winds: from the SSE (150 degrees) at 5 MPH (4 knots; 2.1 m/s)
Visibility: 5 miles ( 8 km)
Ceiling: at least 12,000 feet AGL
Clouds: sky clear below 12,000 feet AGL
Weather: no significant weather observed at this time

METAR text: DTTJ 160230Z 16005KT 8000 NSC 11/09 Q1021
Conditions at: DTTJ (DJERBA MELLITA , TN) observed 0230 UTC 16 December 2019
Temperature: 11.0°C (52°F)
Dewpoint: 9.0°C (48°F) [RH = 87%]
Pressure (altimeter): 30.15 inches Hg (1021.0 mb)
Winds: from the SSE (160 degrees) at 6 MPH (5 knots; 2.6 m/s)
Visibility: 5 miles ( 8 km)
Ceiling: at least 12,000 feet AGL
Clouds: sky clear below 12,000 feet AGL
Weather: no significant weather observed at this time

Forecast for: DTTJ (DJERBA MELLITA , TN)
Text: TAF DTTJ 152300Z 1600/1624 19005KT CAVOK
Forecast period: 0000 UTC 16 December 2019 to 0000 UTC 17 December 2019
Forecast type: FROM: standard forecast or significant change
Winds: from the S (190 degrees) at 6 MPH (5 knots; 2.6 m/s)
Visibility: 6 or more miles 10+ km)
Ceiling: unknown
Clouds: missing
Weather: NSW  (no significant weather)
Text: PROB30
Forecast period: 1800 UTC 16 December 2019 to 0000 UTC 17 December 2019
Forecast type: TEMPORARY: The following changes expected for less than half the time period
Winds: from the S (180 degrees) at 22 MPH (19 knots; 9.8 m/s)
gusting to 33 MPH (29 knots; 14.9 m/s)
Visibility: missing
Ceiling: unknown
Clouds: missing
Weather: no significant weather forecast for this period

MAPA DE AEROPUERTO

INFORMACIÓN DE PISTA
Pista 09 Longitud 10171 ft Ancho 148 ft
Elevación 9 ft Umbral desplazado 0 ft Rumbo de pista 88
Pista 27 Longitud 10171 ft Ancho 148 ft
Elevación 18 ft Umbral desplazado 0 ft Rumbo de pista 268

FRECUANCIAS DEL AEROPUERTO
Tipo APP Nombre DJERBA APP Frecuencia 120.3 MHZ
Tipo TWR Nombre DJERBA TWR Frecuencia 118.15 MHZ

RADIO AYUDAS DEL AEROPUERTO
Tipo VOR-DME Nombre Djerba Frecuencia 112200 KHZ